createdAt,value
2022-11-06T00:01:20.474Z,60.10
2022-11-06T00:04:22.771Z,61.22
2022-11-06T00:07:25.074Z,61.11
2022-11-06T00:10:26.942Z,60.70
2022-11-06T00:13:29.904Z,60.78
2022-11-06T00:16:32.588Z,60.22
2022-11-06T00:19:35.069Z,60.95
2022-11-06T00:22:37.737Z,60.78
2022-11-06T00:25:41.415Z,61.06
2022-11-06T00:28:46.816Z,61.73
2022-11-06T00:31:50.494Z,61.01
2022-11-06T00:34:52.750Z,60.21
2022-11-06T00:37:56.114Z,61.28
2022-11-06T00:41:03.921Z,61.32
2022-11-06T00:44:06.508Z,61.29
2022-11-06T00:47:09.105Z,60.81
2022-11-06T00:50:12.705Z,60.93
2022-11-06T00:53:15.309Z,61.14
2022-11-06T00:56:20.040Z,61.34
2022-11-06T00:59:22.270Z,61.27
2022-11-06T01:02:25.564Z,61.60
2022-11-06T01:05:28.452Z,62.03
2022-11-06T01:08:32.110Z,61.79
2022-11-06T01:12:06.788Z,60.87
2022-11-06T01:15:03.342Z,62.10
2022-11-06T01:18:05.419Z,62.13
2022-11-06T01:21:22.200Z,62.07
2022-11-06T01:24:28.316Z,62.40
2022-11-06T01:27:30.965Z,61.87
2022-11-06T01:30:37.922Z,62.10
2022-11-06T01:33:41.218Z,62.31
2022-11-06T01:36:43.475Z,62.24
2022-11-06T01:39:45.746Z,62.16
2022-11-06T01:42:47.719Z,62.23
2022-11-06T01:45:52.636Z,62.09
2022-11-06T01:49:05.952Z,62.16
2022-11-06T01:52:11.585Z,61.91
2022-11-06T01:55:22.897Z,62.69
2022-11-06T01:58:27.915Z,62.41
2022-11-06T02:01:30.519Z,62.23
2022-11-06T02:04:37.439Z,62.99
2022-11-06T02:07:42.344Z,62.92
2022-11-06T02:10:45.581Z,62.83
2022-11-06T02:14:10.034Z,62.83
2022-11-06T02:17:12.496Z,62.68
2022-11-06T02:20:41.876Z,62.36
2022-11-06T02:24:06.084Z,62.76
2022-11-06T02:27:11.125Z,62.79
2022-11-06T02:30:16.075Z,62.93
2022-11-06T02:33:32.877Z,62.62
2022-11-06T02:36:41.227Z,62.87
2022-11-06T02:39:45.919Z,62.70
2022-11-06T02:42:50.915Z,62.71
2022-11-06T02:46:06.985Z,62.65
2022-11-06T02:49:18.766Z,62.79
2022-11-06T02:52:24.036Z,62.93
2022-11-06T02:55:32.342Z,62.77
2022-11-06T02:58:48.803Z,62.60
2022-11-06T03:02:01.072Z,62.65
2022-11-06T03:05:14.348Z,62.58
2022-11-06T03:08:32.617Z,62.87
2022-11-06T03:11:38.931Z,62.76
2022-11-06T03:15:20.712Z,63.34
2022-11-06T03:18:36.527Z,62.85
2022-11-06T03:21:53.278Z,62.71
2022-11-06T03:25:03.618Z,63.10
2022-11-06T03:28:11.673Z,63.55
2022-11-06T03:31:19.847Z,63.29
2022-11-06T03:34:48.155Z,63.36
2022-11-06T03:37:59.139Z,62.73
2022-11-06T03:41:08.436Z,63.00
2022-11-06T03:44:15.425Z,63.51
2022-11-06T03:47:26.691Z,63.42
2022-11-06T03:50:38.322Z,63.23
2022-11-06T03:53:51.632Z,63.09
2022-11-06T03:57:03.641Z,63.72
2022-11-06T04:00:08.710Z,63.90
2022-11-06T04:03:27.782Z,63.82
2022-11-06T04:06:52.439Z,63.46
2022-11-06T04:10:19.441Z,63.63
2022-11-06T04:13:41.995Z,64.03
2022-11-06T04:16:49.258Z,63.91
2022-11-06T04:19:56.325Z,64.12
2022-11-06T04:23:10.303Z,63.67
2022-11-06T04:26:39.757Z,64.45
2022-11-06T04:30:00.745Z,64.60
2022-11-06T04:33:14.150Z,64.41
2022-11-06T04:36:51.647Z,64.41
2022-11-06T04:40:00.251Z,64.17
2022-11-06T04:43:06.514Z,64.82
2022-11-06T04:46:13.243Z,64.28
2022-11-06T04:49:16.895Z,65.16
2022-11-06T04:52:25.349Z,64.49
2022-11-06T04:55:30.542Z,64.22
2022-11-06T04:58:33.329Z,64.13
2022-11-06T05:01:35.578Z,63.68
2022-11-06T05:04:38.077Z,64.25
2022-11-06T05:07:40.043Z,63.77
2022-11-06T05:10:44.091Z,64.62
2022-11-06T05:13:46.419Z,64.74
2022-11-06T05:16:49.338Z,64.91
2022-11-06T05:19:52.698Z,64.32
2022-11-06T05:23:01.166Z,64.74
2022-11-06T05:26:03.174Z,64.54
2022-11-06T05:29:06.215Z,64.27
2022-11-06T05:32:08.287Z,64.25
2022-11-06T05:35:11.456Z,63.69
2022-11-06T05:38:15.156Z,63.95
2022-11-06T05:41:17.778Z,64.17
2022-11-06T05:44:19.721Z,64.06
2022-11-06T05:47:21.931Z,63.90
2022-11-06T05:50:24.362Z,64.13
2022-11-06T05:53:26.920Z,64.03
2022-11-06T05:56:29.014Z,64.05
2022-11-06T05:59:31.416Z,63.90
2022-11-06T06:02:33.800Z,64.09
2022-11-06T06:05:36.145Z,64.18
2022-11-06T06:08:38.266Z,63.87
2022-11-06T06:11:40.748Z,64.01
2022-11-06T06:14:46.629Z,64.46
2022-11-06T06:17:51.589Z,64.36
2022-11-06T06:20:53.463Z,64.65
2022-11-06T06:23:56.268Z,64.20
2022-11-06T06:26:58.354Z,63.97
2022-11-06T06:30:00.927Z,64.69
2022-11-06T06:33:06.999Z,64.60
2022-11-06T06:36:09.609Z,63.48
2022-11-06T06:39:12.672Z,64.14
2022-11-06T06:42:15.282Z,64.57
2022-11-06T06:45:17.600Z,64.32
2022-11-06T06:48:20.999Z,63.95
2022-11-06T06:51:24.159Z,63.57
2022-11-06T06:54:26.859Z,63.98
2022-11-06T06:57:28.871Z,64.24
2022-11-06T07:00:31.226Z,64.29
2022-11-06T07:03:33.824Z,64.43
2022-11-06T07:06:36.270Z,63.95
2022-11-06T07:09:39.053Z,63.34
2022-11-06T07:12:41.605Z,64.29
2022-11-06T07:15:43.717Z,63.86
2022-11-06T07:18:46.592Z,64.04
2022-11-06T07:21:52.870Z,63.67
2022-11-06T07:24:56.024Z,63.96
2022-11-06T07:28:06.419Z,62.80
2022-11-06T07:31:12.587Z,64.06
2022-11-06T07:34:14.650Z,64.58
2022-11-06T07:37:17.292Z,64.15
2022-11-06T07:40:19.532Z,64.27
2022-11-06T07:43:22.023Z,63.91
2022-11-06T07:46:24.065Z,64.36
2022-11-06T07:49:28.840Z,64.81
2022-11-06T07:52:31.165Z,64.37
2022-11-06T07:55:36.591Z,64.65
2022-11-06T07:58:41.231Z,63.97
2022-11-06T08:01:43.994Z,63.73
2022-11-06T08:04:46.332Z,63.62
2022-11-06T08:07:48.764Z,63.25
2022-11-06T08:10:52.557Z,63.43
2022-11-06T08:13:54.886Z,63.54
2022-11-06T08:16:57.753Z,63.09
2022-11-06T08:20:02.301Z,63.86
2022-11-06T08:23:07.452Z,63.92
2022-11-06T08:26:11.021Z,65.01
2022-11-06T08:29:12.884Z,64.41
2022-11-06T08:32:15.426Z,64.76
2022-11-06T08:35:42.682Z,66.31
2022-11-06T08:39:16.754Z,65.62
2022-11-06T08:42:20.834Z,65.62
2022-11-06T08:47:14.994Z,65.85
2022-11-06T08:50:44.646Z,65.53
2022-11-06T08:53:55.936Z,64.79
2022-11-06T08:56:58.669Z,64.71
2022-11-06T09:00:00.815Z,64.18
2022-11-06T09:03:06.395Z,63.87
2022-11-06T09:06:09.858Z,64.08
2022-11-06T09:09:17.030Z,64.51
2022-11-06T09:12:24.295Z,64.66
2022-11-06T09:15:30.025Z,64.52
2022-11-06T09:19:18.302Z,64.46
2022-11-06T09:23:03.412Z,64.04
2022-11-06T09:26:18.227Z,64.22
2022-11-06T09:29:45.919Z,64.22
2022-11-06T09:33:47.032Z,63.93
2022-11-06T09:36:50.014Z,64.19
2022-11-06T09:39:52.035Z,64.43
2022-11-06T09:43:31.768Z,64.68
2022-11-06T09:46:44.630Z,64.25
2022-11-06T09:49:54.206Z,64.60
2022-11-06T09:53:07.916Z,64.44
2022-11-06T09:56:14.358Z,64.64
2022-11-06T09:59:19.193Z,64.36
2022-11-06T10:02:26.066Z,65.11
2022-11-06T10:05:31.085Z,64.82
2022-11-06T10:08:34.331Z,64.53
2022-11-06T10:12:03.198Z,64.64
2022-11-06T10:15:39.417Z,64.70
2022-11-06T10:18:47.509Z,65.25
2022-11-06T10:22:03.321Z,65.20
2022-11-06T10:25:22.418Z,65.25
2022-11-06T10:28:52.628Z,65.17
2022-11-06T10:32:32.043Z,65.07
2022-11-06T10:35:50.059Z,64.37
2022-11-06T10:38:56.323Z,64.45
2022-11-06T10:42:21.552Z,64.00
2022-11-06T10:45:26.325Z,63.96
2022-11-06T10:48:41.383Z,63.98
2022-11-06T10:52:09.238Z,64.58
2022-11-06T10:55:30.480Z,64.25
2022-11-06T10:58:33.772Z,63.63
2022-11-06T11:01:38.626Z,63.37
2022-11-06T11:04:41.413Z,63.51
2022-11-06T11:07:47.154Z,63.14
2022-11-06T11:11:04.277Z,63.84
2022-11-06T11:14:10.302Z,63.25
2022-11-06T11:17:23.620Z,64.04
2022-11-06T11:20:32.967Z,63.70
2022-11-06T11:23:35.863Z,63.56
2022-11-06T11:26:48.426Z,63.25
2022-11-06T11:29:53.323Z,63.20
2022-11-06T11:32:59.570Z,63.69
2022-11-06T11:36:03.555Z,63.58
2022-11-06T11:39:06.256Z,63.09
2022-11-06T11:42:24.655Z,64.31
2022-11-06T11:45:27.444Z,63.70
2022-11-06T11:48:44.013Z,64.08
2022-11-06T11:51:48.540Z,64.69
2022-11-06T11:54:53.893Z,64.47
2022-11-06T11:57:59.869Z,65.28
2022-11-06T12:01:04.719Z,64.52
2022-11-06T12:04:26.348Z,64.11
2022-11-06T12:11:03.788Z,64.82
2022-11-06T12:18:12.003Z,65.55
2022-11-06T12:25:17.923Z,64.80
2022-11-06T12:36:09.844Z,63.49
2022-11-06T12:39:22.893Z,63.15
2022-11-06T12:42:30.734Z,62.85
2022-11-06T12:45:38.654Z,62.42
2022-11-06T12:49:18.201Z,62.27
2022-11-06T12:52:32.777Z,62.36
2022-11-06T12:56:27.043Z,62.32
2022-11-06T12:59:35.876Z,61.57
2022-11-06T13:02:44.258Z,62.01
2022-11-06T13:06:13.639Z,62.53
2022-11-06T13:09:24.935Z,63.80
2022-11-06T13:13:10.197Z,63.17
2022-11-06T13:16:32.600Z,62.04
2022-11-06T13:19:41.062Z,61.92
2022-11-06T13:22:51.145Z,62.17
2022-11-06T13:26:13.398Z,61.58
2022-11-06T13:29:22.699Z,61.37
2022-11-06T13:32:30.285Z,63.16
2022-11-06T13:35:34.838Z,63.00
2022-11-06T13:38:42.568Z,62.17
2022-11-06T13:41:44.465Z,62.74
2022-11-06T13:44:48.442Z,61.94
2022-11-06T13:48:15.671Z,62.09
2022-11-06T13:51:24.300Z,61.95
2022-11-06T13:54:48.131Z,60.83
2022-11-06T13:58:16.267Z,62.33
2022-11-06T14:01:33.533Z,60.36
2022-11-06T14:04:56.260Z,62.45
2022-11-06T14:08:02.986Z,62.48
2022-11-06T14:11:11.463Z,61.72
2022-11-06T14:14:22.809Z,62.10
2022-11-06T14:17:25.989Z,61.91
2022-11-06T14:20:35.276Z,61.53
2022-11-06T14:23:38.171Z,62.50
2022-11-06T14:26:46.140Z,62.31
2022-11-06T14:30:07.933Z,61.39
2022-11-06T14:33:11.968Z,62.74
2022-11-06T14:36:27.956Z,61.68
2022-11-06T14:39:52.485Z,61.84
2022-11-06T14:42:56.361Z,61.72
2022-11-06T14:46:22.282Z,62.19
2022-11-06T14:49:44.712Z,62.00
2022-11-06T14:53:01.434Z,61.67
2022-11-06T14:56:11.268Z,61.59
2022-11-06T14:59:35.408Z,61.52
2022-11-06T15:02:38.875Z,61.79
2022-11-06T15:05:42.755Z,61.65
2022-11-06T15:08:45.462Z,61.60
2022-11-06T15:11:54.114Z,61.84
2022-11-06T15:15:03.840Z,61.97
2022-11-06T15:18:15.211Z,61.80
2022-11-06T15:21:23.997Z,61.96
2022-11-06T15:24:57.645Z,61.79
2022-11-06T15:28:09.501Z,61.28
2022-11-06T15:31:16.543Z,62.94
2022-11-06T15:34:37.482Z,62.16
2022-11-06T15:38:08.188Z,61.40
2022-11-06T15:41:18.819Z,61.05
2022-11-06T15:44:23.485Z,61.61
2022-11-06T15:47:28.750Z,61.39
2022-11-06T15:50:43.464Z,61.07
2022-11-06T15:53:46.115Z,60.95
2022-11-06T15:56:51.890Z,61.18
2022-11-06T16:00:10.600Z,61.51
2022-11-06T16:03:26.208Z,60.99
2022-11-06T16:06:29.438Z,60.43
2022-11-06T16:09:32.205Z,60.78
2022-11-06T16:12:35.051Z,60.69
2022-11-06T16:15:44.207Z,60.69
2022-11-06T16:18:49.981Z,59.95
2022-11-06T16:22:01.193Z,60.51
2022-11-06T16:25:07.830Z,60.41
2022-11-06T16:28:18.918Z,60.69
2022-11-06T16:31:24.093Z,61.85
2022-11-06T16:34:32.248Z,61.70
2022-11-06T16:37:37.526Z,60.07
2022-11-06T16:40:53.032Z,60.66
2022-11-06T16:44:31.029Z,60.98
2022-11-06T16:47:34.711Z,58.29
2022-11-06T16:51:00.097Z,61.18
2022-11-06T16:54:03.849Z,62.53
2022-11-06T16:57:14.437Z,61.47
2022-11-06T17:00:21.914Z,61.12
2022-11-06T17:03:26.425Z,61.99
2022-11-06T17:06:32.605Z,61.73
2022-11-06T17:09:37.070Z,60.41
2022-11-06T17:12:39.186Z,60.64
2022-11-06T17:15:42.548Z,62.04
2022-11-06T17:18:45.308Z,63.83
2022-11-06T17:21:49.403Z,64.10
2022-11-06T17:24:52.579Z,63.16
2022-11-06T17:27:56.837Z,62.62
2022-11-06T17:30:59.740Z,63.52
2022-11-06T17:34:02.131Z,62.29
2022-11-06T17:37:04.171Z,64.23
2022-11-06T17:40:07.197Z,64.86
2022-11-06T17:43:10.181Z,64.45
2022-11-06T17:46:14.523Z,64.61
2022-11-06T17:49:18.349Z,64.28
2022-11-06T17:52:21.915Z,62.43
2022-11-06T17:55:24.116Z,62.32
2022-11-06T17:58:26.725Z,63.44
2022-11-06T18:01:29.119Z,64.05
2022-11-06T18:04:34.401Z,63.74
2022-11-06T18:07:38.166Z,62.83
2022-11-06T18:10:41.933Z,63.51
2022-11-06T18:13:45.485Z,64.25
2022-11-06T18:16:48.876Z,63.65
2022-11-06T18:19:51.804Z,64.19
2022-11-06T18:22:54.424Z,65.01
2022-11-06T18:25:57.640Z,64.79
2022-11-06T18:29:00.014Z,64.05
2022-11-06T18:32:02.895Z,64.00
2022-11-06T18:35:07.465Z,65.06
2022-11-06T18:38:12.021Z,64.88
2022-11-06T18:41:21.158Z,64.62
2022-11-06T18:44:23.131Z,64.24
2022-11-06T18:47:25.918Z,63.70
2022-11-06T18:50:27.916Z,64.10
2022-11-06T18:53:30.607Z,64.42
2022-11-06T18:56:33.987Z,64.29
2022-11-06T18:59:37.176Z,63.62
2022-11-06T19:02:40.749Z,63.57
2022-11-06T19:05:51.200Z,64.23
2022-11-06T19:08:53.262Z,63.81
2022-11-06T19:11:56.073Z,63.60
2022-11-06T19:14:58.137Z,63.84
2022-11-06T19:18:01.272Z,63.01
2022-11-06T19:21:05.330Z,64.21
2022-11-06T19:24:15.332Z,63.83
2022-11-06T19:27:19.423Z,64.14
2022-11-06T19:30:22.465Z,63.92
2022-11-06T19:38:21.815Z,64.40
2022-11-06T19:41:51.022Z,64.54
2022-11-06T19:44:55.177Z,64.27
2022-11-06T19:48:03.594Z,64.12
2022-11-06T19:51:10.085Z,64.36
2022-11-06T19:54:13.162Z,64.79
2022-11-06T19:57:29.664Z,64.39
2022-11-06T20:00:32.165Z,64.04
2022-11-06T20:03:34.962Z,64.78
2022-11-06T20:06:39.106Z,64.44
2022-11-06T20:09:41.887Z,64.48
2022-11-06T20:12:45.132Z,64.73
2022-11-06T20:15:48.982Z,64.42
2022-11-06T20:19:04.985Z,64.72
2022-11-06T20:22:07.400Z,64.84
2022-11-06T20:25:10.064Z,64.94
2022-11-06T20:28:12.569Z,64.65
2022-11-06T20:31:16.303Z,65.51
2022-11-06T20:34:19.701Z,65.13
2022-11-06T20:37:21.976Z,65.04
2022-11-06T20:40:29.192Z,63.95
2022-11-06T20:43:36.624Z,63.89
2022-11-06T20:46:39.538Z,63.63
2022-11-06T20:49:43.496Z,63.96
2022-11-06T20:52:46.014Z,63.92
2022-11-06T20:55:48.049Z,63.44
2022-11-06T20:58:50.450Z,62.92
2022-11-06T21:01:53.701Z,62.90
2022-11-06T21:04:56.562Z,63.94
2022-11-06T21:07:58.617Z,63.90
2022-11-06T21:11:07.043Z,64.04
2022-11-06T21:14:09.236Z,63.80
2022-11-06T21:17:11.782Z,63.71
2022-11-06T21:20:17.962Z,63.85
2022-11-06T21:23:23.170Z,63.31
2022-11-06T21:26:28.063Z,63.85
2022-11-06T21:29:30.590Z,63.63
2022-11-06T21:32:32.802Z,63.84
2022-11-06T21:35:37.328Z,63.47
2022-11-06T21:38:41.093Z,64.03
2022-11-06T21:41:44.922Z,64.05
2022-11-06T21:44:48.683Z,64.17
2022-11-06T21:47:51.238Z,64.04
2022-11-06T21:50:53.876Z,64.33
2022-11-06T21:54:15.543Z,64.13
2022-11-06T21:57:18.818Z,64.01
2022-11-06T22:00:22.676Z,64.21
2022-11-06T22:03:26.951Z,63.62
2022-11-06T22:06:30.125Z,64.11
2022-11-06T22:09:32.489Z,63.79
2022-11-06T22:12:35.450Z,64.38
2022-11-06T22:15:37.477Z,64.44
2022-11-06T22:18:41.164Z,64.16
2022-11-06T22:21:45.318Z,64.04
2022-11-06T22:24:48.869Z,64.36
2022-11-06T22:27:51.306Z,64.15
2022-11-06T22:30:54.182Z,64.36
2022-11-06T22:33:56.533Z,64.01
2022-11-06T22:36:58.908Z,63.99
2022-11-06T22:40:01.076Z,64.03
2022-11-06T22:43:05.570Z,64.21
2022-11-06T22:46:12.004Z,63.81
2022-11-06T22:49:14.667Z,63.64
2022-11-06T22:52:16.940Z,63.34
2022-11-06T22:55:19.538Z,63.48
2022-11-06T22:58:21.650Z,63.54
2022-11-06T23:01:26.663Z,63.57
2022-11-06T23:04:28.960Z,63.56
2022-11-06T23:07:31.544Z,63.20
2022-11-06T23:10:35.386Z,62.79
2022-11-06T23:13:38.916Z,62.67
2022-11-06T23:17:01.249Z,62.81
2022-11-06T23:20:04.406Z,62.67
2022-11-06T23:23:06.635Z,63.01
2022-11-06T23:26:14.926Z,62.49
2022-11-06T23:29:17.332Z,62.67
2022-11-06T23:32:20.077Z,62.75
2022-11-06T23:35:23.021Z,62.51
2022-11-06T23:38:25.564Z,62.65
2022-11-06T23:41:46.487Z,62.08
2022-11-06T23:45:15.030Z,62.27
2022-11-06T23:48:17.529Z,62.12
2022-11-06T23:51:21.329Z,61.52
2022-11-06T23:54:23.416Z,61.67
2022-11-06T23:57:26.123Z,61.68
